createdAt,value
2018-01-30T00:02:00.014Z,100189.27
2018-01-30T00:04:28.308Z,100199.52
2018-01-30T00:06:56.579Z,100194.10
2018-01-30T00:09:24.901Z,100194.44
2018-01-30T00:11:53.196Z,100201.27
2018-01-30T00:14:21.500Z,100198.73
2018-01-30T00:16:49.803Z,100216.81
2018-01-30T00:19:18.125Z,100210.11
2018-01-30T00:21:46.407Z,100211.70
2018-01-30T00:24:14.683Z,100169.02
2018-01-30T00:26:42.996Z,100204.42
2018-01-30T00:29:11.273Z,100199.25
2018-01-30T00:31:39.606Z,100204.69
2018-01-30T00:34:08.110Z,100210.07
2018-01-30T00:36:37.194Z,100204.18
2018-01-30T00:39:05.474Z,100207.30
2018-01-30T00:41:33.836Z,100212.34
2018-01-30T00:44:02.101Z,100219.69
2018-01-30T00:46:30.394Z,100222.39
2018-01-30T00:48:58.671Z,100225.30
2018-01-30T00:51:26.985Z,100227.36
2018-01-30T00:53:55.307Z,100221.17
2018-01-30T00:56:23.636Z,100234.61
2018-01-30T00:58:51.919Z,100238.16
2018-01-30T01:01:20.187Z,100253.42
2018-01-30T01:03:48.527Z,100265.40
2018-01-30T01:06:16.811Z,100258.31
2018-01-30T01:08:45.116Z,100262.27
2018-01-30T01:11:13.371Z,100257.55
2018-01-30T01:13:41.672Z,100258.72
2018-01-30T01:16:09.961Z,100260.27
2018-01-30T01:18:38.274Z,100256.05
2018-01-30T01:21:06.542Z,100262.72
2018-01-30T01:23:34.827Z,100256.69
2018-01-30T01:26:03.094Z,100269.03
2018-01-30T01:28:31.381Z,100254.52
2018-01-30T01:30:59.671Z,100268.07
2018-01-30T01:33:27.955Z,100266.73
2018-01-30T01:35:56.262Z,100263.20
2018-01-30T01:38:24.537Z,100262.19
2018-01-30T01:40:52.849Z,100269.53
2018-01-30T01:43:21.110Z,100276.44
2018-01-30T01:45:49.423Z,100283.98
2018-01-30T01:48:17.690Z,100278.44
2018-01-30T01:50:45.981Z,100276.97
2018-01-30T01:53:14.311Z,100285.44
2018-01-30T01:55:42.610Z,100276.86
2018-01-30T01:58:10.921Z,100278.93
2018-01-30T02:00:40.381Z,100278.83
2018-01-30T02:03:08.699Z,100270.13
2018-01-30T02:05:36.970Z,100269.36
2018-01-30T02:08:05.346Z,100265.95
2018-01-30T02:10:33.636Z,100275.74
2018-01-30T02:13:01.911Z,100272.16
2018-01-30T02:15:30.279Z,100272.94
2018-01-30T02:17:58.584Z,100273.83
2018-01-30T02:20:26.903Z,100267.25
2018-01-30T02:22:55.194Z,100278.80
2018-01-30T02:25:23.483Z,100282.49
2018-01-30T02:27:51.795Z,100286.02
2018-01-30T02:30:20.083Z,100282.91
2018-01-30T02:32:48.818Z,100284.66
2018-01-30T02:35:17.116Z,100283.50
2018-01-30T02:37:45.395Z,100283.81
2018-01-30T02:40:13.688Z,100278.77
2018-01-30T02:42:42.032Z,100280.36
2018-01-30T02:45:11.446Z,100275.41
2018-01-30T02:47:39.710Z,100273.89
2018-01-30T02:50:07.987Z,100280.23
2018-01-30T02:52:36.301Z,100280.22
2018-01-30T02:55:05.171Z,100274.14
2018-01-30T02:57:33.501Z,100280.84
2018-01-30T03:00:01.776Z,100274.13
2018-01-30T03:02:30.091Z,100280.80
2018-01-30T03:04:58.372Z,100280.95
2018-01-30T03:07:26.659Z,100284.53
2018-01-30T03:09:54.935Z,100282.98
2018-01-30T03:12:23.287Z,100286.42
2018-01-30T03:14:51.574Z,100272.56
2018-01-30T03:17:19.883Z,100283.80
2018-01-30T03:19:48.152Z,100281.63
2018-01-30T03:22:16.475Z,100279.45
2018-01-30T03:24:44.773Z,100277.13
2018-01-30T03:27:13.055Z,100279.52
2018-01-30T03:29:41.375Z,100277.41
2018-01-30T03:32:09.634Z,100266.22
2018-01-30T03:34:37.948Z,100269.39
2018-01-30T03:37:06.240Z,100261.45
2018-01-30T03:39:34.548Z,100265.67
2018-01-30T03:42:02.818Z,100270.17
2018-01-30T03:44:31.132Z,100270.11
2018-01-30T03:46:59.399Z,100269.75
2018-01-30T03:49:27.710Z,100272.41
2018-01-30T03:51:56.018Z,100272.00
2018-01-30T03:54:24.305Z,100264.34
2018-01-30T03:56:52.603Z,100267.17
2018-01-30T03:59:20.896Z,100275.90
2018-01-30T04:01:49.193Z,100279.40
2018-01-30T04:04:17.470Z,100274.56
2018-01-30T04:06:45.783Z,100257.67
2018-01-30T04:09:14.061Z,100275.38
2018-01-30T04:11:42.366Z,100280.38
2018-01-30T04:14:10.764Z,100274.29
2018-01-30T04:16:39.811Z,100277.28
2018-01-30T04:19:08.097Z,100278.73
2018-01-30T04:21:36.458Z,100273.79
2018-01-30T04:24:05.055Z,100264.76
2018-01-30T04:26:33.329Z,100268.09
2018-01-30T04:29:01.638Z,100271.22
2018-01-30T04:31:29.900Z,100266.98
2018-01-30T04:33:58.223Z,100279.53
2018-01-30T04:36:26.650Z,100270.16
2018-01-30T04:38:54.935Z,100271.17
2018-01-30T04:41:23.212Z,100275.98
2018-01-30T04:43:51.513Z,100281.01
2018-01-30T04:46:19.763Z,100290.77
2018-01-30T04:48:49.458Z,100292.94
2018-01-30T04:51:17.727Z,100291.13
2018-01-30T04:53:46.026Z,100289.13
2018-01-30T04:56:14.325Z,100292.13
2018-01-30T04:58:43.579Z,100293.36
2018-01-30T05:01:12.670Z,100288.29
2018-01-30T05:03:40.957Z,100291.78
2018-01-30T05:06:09.635Z,100296.20
2018-01-30T05:08:37.910Z,100304.59
2018-01-30T05:11:06.235Z,100312.92
2018-01-30T05:13:34.500Z,100310.73
2018-01-30T05:16:02.847Z,100322.13
2018-01-30T05:18:31.730Z,100318.98
2018-01-30T05:21:00.036Z,100328.52
2018-01-30T05:23:28.303Z,100331.27
2018-01-30T05:25:56.671Z,100331.40
2018-01-30T05:28:24.952Z,100335.81
2018-01-30T05:30:53.217Z,100326.20
2018-01-30T05:33:21.894Z,100338.54
2018-01-30T05:35:50.195Z,100349.97
2018-01-30T05:38:18.520Z,100349.25
2018-01-30T05:40:46.748Z,100351.00
2018-01-30T05:43:15.075Z,100339.92
2018-01-30T05:45:43.404Z,100357.55
2018-01-30T05:48:11.757Z,100356.77
2018-01-30T05:50:40.033Z,100354.45
2018-01-30T05:53:09.229Z,100356.39
2018-01-30T05:55:37.551Z,100362.47
2018-01-30T05:58:07.035Z,100360.28
2018-01-30T06:00:35.337Z,100358.18
2018-01-30T06:03:03.687Z,100351.98
2018-01-30T06:05:32.054Z,100334.97
2018-01-30T06:08:00.343Z,100360.13
2018-01-30T06:13:36.418Z,100343.55
2018-01-30T06:16:06.413Z,100334.38
2018-01-30T06:18:34.714Z,100350.62
2018-01-30T06:21:03.044Z,100353.23
2018-01-30T06:23:31.343Z,100362.13
2018-01-30T06:25:59.643Z,100365.20
2018-01-30T06:28:27.899Z,100366.01
2018-01-30T06:30:56.191Z,100366.73
2018-01-30T06:33:24.513Z,100373.33
2018-01-30T06:35:52.824Z,100371.89
2018-01-30T06:38:21.114Z,100372.70
2018-01-30T06:40:49.406Z,100377.73
2018-01-30T06:43:17.672Z,100370.52
2018-01-30T06:45:46.004Z,100358.52
2018-01-30T06:48:14.259Z,100357.71
2018-01-30T06:50:42.603Z,100353.38
2018-01-30T06:53:10.875Z,100352.06
2018-01-30T06:55:39.244Z,100348.78
2018-01-30T06:58:07.530Z,100346.86
2018-01-30T07:00:35.832Z,100353.53
2018-01-30T07:03:04.152Z,100352.41
2018-01-30T07:05:32.448Z,100351.09
2018-01-30T07:08:00.750Z,100352.04
2018-01-30T07:10:29.075Z,100361.66
2018-01-30T07:12:57.379Z,100363.41
2018-01-30T07:15:25.659Z,100367.16
2018-01-30T07:17:54.621Z,100373.64
2018-01-30T07:20:22.900Z,100376.72
2018-01-30T07:22:51.270Z,100380.64
2018-01-30T07:25:19.577Z,100381.70
2018-01-30T07:27:47.854Z,100387.13
2018-01-30T07:30:16.152Z,100383.97
2018-01-30T07:32:44.479Z,100379.26
2018-01-30T07:35:12.807Z,100385.34
2018-01-30T07:37:41.070Z,100385.84
2018-01-30T07:40:09.376Z,100390.71
2018-01-30T07:42:37.672Z,100382.03
2018-01-30T07:45:06.775Z,100383.04
2018-01-30T07:47:35.182Z,100380.43
2018-01-30T07:50:03.507Z,100371.66
2018-01-30T07:52:31.778Z,100373.33
2018-01-30T07:55:00.123Z,100362.56
2018-01-30T07:57:28.446Z,100375.28
2018-01-30T07:59:56.926Z,100356.95
2018-01-30T08:02:25.183Z,100376.41
2018-01-30T08:04:53.639Z,100374.97
2018-01-30T08:07:21.904Z,100381.08
2018-01-30T08:09:50.967Z,100381.45
2018-01-30T08:12:19.338Z,100372.34
2018-01-30T08:14:47.585Z,100382.23
2018-01-30T08:17:15.845Z,100379.95
2018-01-30T08:19:44.134Z,100385.31
2018-01-30T08:22:12.547Z,100379.44
2018-01-30T08:24:41.516Z,100376.48
2018-01-30T08:27:09.780Z,100395.42
2018-01-30T08:29:38.132Z,100393.02
2018-01-30T08:32:06.389Z,100387.25
2018-01-30T08:34:34.693Z,100377.66
2018-01-30T08:37:02.972Z,100365.14
2018-01-30T08:39:31.270Z,100368.92
2018-01-30T08:41:59.563Z,100390.23
2018-01-30T08:44:28.172Z,100392.52
2018-01-30T08:46:56.439Z,100389.22
2018-01-30T08:49:24.930Z,100387.80
2018-01-30T08:51:53.692Z,100397.34
2018-01-30T08:54:21.995Z,100393.22
2018-01-30T08:56:50.373Z,100386.89
2018-01-30T08:59:18.800Z,100390.30
2018-01-30T09:01:47.126Z,100385.13
2018-01-30T09:04:15.463Z,100392.20
2018-01-30T09:06:43.778Z,100384.39
2018-01-30T09:09:12.189Z,100382.95
2018-01-30T09:11:40.503Z,100379.20
2018-01-30T09:14:08.761Z,100376.46
2018-01-30T09:16:37.167Z,100396.31
2018-01-30T09:19:05.674Z,100369.35
2018-01-30T09:21:34.402Z,100365.55
2018-01-30T09:24:02.707Z,100365.91
2018-01-30T09:26:31.016Z,100364.36
2018-01-30T09:28:59.335Z,100364.45
2018-01-30T09:31:27.623Z,100360.06
2018-01-30T09:33:55.924Z,100362.23
2018-01-30T09:36:24.256Z,100366.39
2018-01-30T09:38:52.674Z,100363.35
2018-01-30T09:41:20.944Z,100362.19
2018-01-30T09:43:49.242Z,100362.27
2018-01-30T09:46:17.622Z,100359.95
2018-01-30T09:48:45.913Z,100358.20
2018-01-30T09:51:14.280Z,100353.09
2018-01-30T09:53:42.587Z,100351.42
2018-01-30T09:56:11.522Z,100341.91
2018-01-30T09:58:41.383Z,100340.33
2018-01-30T10:01:10.594Z,100350.09
2018-01-30T10:03:38.871Z,100353.59
2018-01-30T10:06:07.188Z,100358.78
2018-01-30T10:08:35.450Z,100351.53
2018-01-30T10:11:03.751Z,100355.83
2018-01-30T10:13:32.071Z,100355.94
2018-01-30T10:16:00.405Z,100358.42
2018-01-30T10:18:28.682Z,100354.73
2018-01-30T10:20:56.978Z,100360.50
2018-01-30T10:23:25.289Z,100361.22
2018-01-30T10:25:53.582Z,100363.98
2018-01-30T10:28:22.006Z,100360.34
2018-01-30T10:30:50.828Z,100357.09
2018-01-30T10:33:19.105Z,100360.56
2018-01-30T10:35:47.426Z,100351.19
2018-01-30T10:38:15.706Z,100358.59
2018-01-30T10:40:44.036Z,100366.99
2018-01-30T10:43:13.132Z,100361.34
2018-01-30T10:45:41.457Z,100353.38
2018-01-30T10:48:09.803Z,100356.13
2018-01-30T10:50:38.030Z,100345.31
2018-01-30T10:53:06.342Z,100349.67
2018-01-30T10:55:35.964Z,100343.89
2018-01-30T10:58:04.251Z,100328.14
2018-01-30T11:00:32.729Z,100333.91
2018-01-30T11:03:01.068Z,100340.45
2018-01-30T11:05:29.386Z,100336.63
2018-01-30T11:07:58.202Z,100337.31
2018-01-30T11:10:26.576Z,100335.91
2018-01-30T11:12:54.888Z,100329.31
2018-01-30T11:15:23.280Z,100321.88
2018-01-30T11:17:51.864Z,100324.39
2018-01-30T11:20:20.289Z,100321.08
2018-01-30T11:22:48.672Z,100305.61
2018-01-30T11:25:16.974Z,100313.66
2018-01-30T11:27:45.352Z,100307.66
2018-01-30T11:30:13.696Z,100301.26
2018-01-30T11:32:41.961Z,100303.56
2018-01-30T11:35:10.348Z,100299.90
2018-01-30T11:37:38.835Z,100288.55
2018-01-30T11:40:08.086Z,100286.62
2018-01-30T11:42:36.372Z,100283.65
2018-01-30T11:45:05.354Z,100278.88
2018-01-30T11:47:33.630Z,100265.39
2018-01-30T11:50:01.896Z,100279.81
2018-01-30T11:52:31.166Z,100281.59
2018-01-30T11:54:59.462Z,100278.71
2018-01-30T11:57:27.764Z,100268.55
2018-01-30T11:59:56.036Z,100252.95
2018-01-30T12:02:24.406Z,100246.31
2018-01-30T12:04:53.341Z,100257.52
2018-01-30T12:07:23.946Z,100245.59
2018-01-30T12:09:52.258Z,100251.26
2018-01-30T12:12:20.519Z,100245.16
2018-01-30T12:14:48.841Z,100238.48
2018-01-30T12:17:17.118Z,100235.89
2018-01-30T12:19:45.434Z,100231.89
2018-01-30T12:22:13.736Z,100221.76
2018-01-30T12:24:42.095Z,100218.50
2018-01-30T12:27:10.460Z,100212.20
2018-01-30T12:29:38.855Z,100202.81
2018-01-30T12:32:07.214Z,100207.30
2018-01-30T12:34:35.610Z,100211.27
2018-01-30T12:37:04.913Z,100205.12
2018-01-30T12:39:33.902Z,100201.58
2018-01-30T12:42:02.184Z,100183.69
2018-01-30T12:44:30.536Z,100195.45
2018-01-30T12:46:58.850Z,100198.15
2018-01-30T12:49:27.147Z,100192.10
2018-01-30T12:51:55.438Z,100173.45
2018-01-30T12:54:23.748Z,100172.56
2018-01-30T12:56:52.083Z,100168.92
2018-01-30T12:59:20.453Z,100162.03
2018-01-30T13:01:49.218Z,100158.47
2018-01-30T13:04:17.525Z,100143.77
2018-01-30T13:06:45.849Z,100146.81
2018-01-30T13:09:14.266Z,100146.17
2018-01-30T13:11:42.570Z,100145.59
2018-01-30T13:14:10.860Z,100146.75
2018-01-30T13:16:39.164Z,100137.75
2018-01-30T13:19:07.438Z,100135.97
2018-01-30T13:21:35.808Z,100135.41
2018-01-30T13:24:05.152Z,100129.63
2018-01-30T13:26:33.394Z,100126.38
2018-01-30T13:29:01.723Z,100112.56
2018-01-30T13:31:29.999Z,100126.00
2018-01-30T13:33:58.323Z,100125.03
2018-01-30T13:36:26.602Z,100124.32
2018-01-30T13:38:54.881Z,100120.45
2018-01-30T13:41:23.146Z,100113.95
2018-01-30T13:43:52.228Z,100109.71
2018-01-30T13:46:20.502Z,100117.34
2018-01-30T13:48:48.809Z,100108.59
2018-01-30T13:51:17.137Z,100101.36
2018-01-30T13:53:45.412Z,100108.98
2018-01-30T13:56:13.739Z,100107.81
2018-01-30T13:58:42.045Z,100108.80
2018-01-30T14:01:10.412Z,100107.55
2018-01-30T14:03:38.670Z,100097.70
2018-01-30T14:06:07.848Z,100100.88
2018-01-30T14:08:36.128Z,100106.15
2018-01-30T14:11:05.202Z,100102.64
2018-01-30T14:13:33.639Z,100107.38
2018-01-30T14:16:01.861Z,100082.25
2018-01-30T14:18:30.189Z,100096.50
2018-01-30T14:20:58.643Z,100095.94
2018-01-30T14:23:27.271Z,100096.83
2018-01-30T14:25:55.585Z,100081.83
2018-01-30T14:28:23.942Z,100081.27
2018-01-30T14:30:52.359Z,100090.26
2018-01-30T14:33:20.638Z,100092.31
2018-01-30T14:35:48.890Z,100094.41
2018-01-30T14:38:17.207Z,100092.30
2018-01-30T14:40:45.622Z,100085.03
2018-01-30T14:43:13.878Z,100091.87
2018-01-30T14:45:42.216Z,100087.21
2018-01-30T14:48:10.515Z,100080.74
2018-01-30T14:50:38.847Z,100054.64
2018-01-30T14:53:07.129Z,100072.56
2018-01-30T14:55:35.442Z,100070.39
2018-01-30T14:58:04.133Z,100065.34
2018-01-30T15:00:32.442Z,100064.02
2018-01-30T15:03:00.712Z,100058.88
2018-01-30T15:05:29.165Z,100054.91
2018-01-30T15:07:58.261Z,100052.88
2018-01-30T15:10:26.578Z,100051.80
2018-01-30T15:12:54.874Z,100040.76
2018-01-30T15:15:23.184Z,100037.31
2018-01-30T15:17:51.613Z,100035.78
2018-01-30T15:20:20.316Z,100034.26
2018-01-30T15:22:48.722Z,100033.25
2018-01-30T15:25:17.008Z,100024.84
2018-01-30T15:27:45.313Z,100023.67
2018-01-30T15:30:13.603Z,100025.25
2018-01-30T15:32:41.929Z,100024.23
2018-01-30T15:35:10.202Z,100018.88
2018-01-30T15:37:38.534Z,100005.88
2018-01-30T15:40:06.931Z,100010.09
2018-01-30T15:42:35.962Z,100000.83
2018-01-30T15:45:04.227Z,100002.20
2018-01-30T15:47:32.580Z,100008.00
2018-01-30T15:50:00.891Z,100011.57
2018-01-30T15:52:29.206Z,100006.23
2018-01-30T15:54:57.756Z,100002.17
2018-01-30T15:57:26.419Z,99999.42
2018-01-30T15:59:54.833Z,99998.86
2018-01-30T16:02:23.107Z,99985.69
2018-01-30T16:04:51.382Z,99993.66
2018-01-30T16:07:19.712Z,99988.69
2018-01-30T16:09:48.099Z,99986.59
2018-01-30T16:12:16.497Z,99979.33
2018-01-30T16:14:44.783Z,99977.80
2018-01-30T16:17:13.048Z,99984.52
2018-01-30T16:19:41.350Z,99972.67
2018-01-30T16:22:09.673Z,99973.02
2018-01-30T16:24:38.539Z,99970.78
2018-01-30T16:27:07.067Z,99972.77
2018-01-30T16:29:36.368Z,99970.86
2018-01-30T16:32:04.746Z,99961.20
2018-01-30T16:34:33.002Z,99957.03
2018-01-30T16:37:01.312Z,99949.79
2018-01-30T16:39:29.585Z,99957.47
2018-01-30T16:41:57.942Z,99949.19
2018-01-30T16:44:26.892Z,99940.54
2018-01-30T16:46:55.687Z,99944.11
2018-01-30T16:49:24.022Z,99943.23
2018-01-30T16:51:52.401Z,99931.64
2018-01-30T16:54:20.738Z,99939.73
2018-01-30T16:56:49.048Z,99937.45
2018-01-30T16:59:17.342Z,99936.02
2018-01-30T17:01:45.607Z,99918.03
2018-01-30T17:04:14.081Z,99922.51
2018-01-30T17:06:42.442Z,99920.52
2018-01-30T17:09:10.774Z,99921.28
2018-01-30T17:11:39.166Z,99916.20
2018-01-30T17:14:07.451Z,99918.84
2018-01-30T17:16:35.776Z,99918.67
2018-01-30T17:19:04.047Z,99909.06
2018-01-30T17:21:32.403Z,99917.73
2018-01-30T17:24:00.776Z,99909.95
2018-01-30T17:26:29.795Z,99912.75
2018-01-30T17:28:58.083Z,99911.11
2018-01-30T17:31:26.401Z,99908.38
2018-01-30T17:33:54.702Z,99905.52
2018-01-30T17:36:23.092Z,99905.03
2018-01-30T17:38:51.485Z,99911.01
2018-01-30T17:41:19.814Z,99897.25
2018-01-30T17:43:48.083Z,99901.20
2018-01-30T17:46:16.371Z,99900.23
2018-01-30T17:48:44.670Z,99900.34
2018-01-30T17:51:12.938Z,99900.78
2018-01-30T17:53:41.248Z,99892.16
2018-01-30T17:56:09.581Z,99876.59
2018-01-30T17:58:37.875Z,99894.03
2018-01-30T18:01:06.184Z,99897.83
2018-01-30T18:03:34.452Z,99889.86
2018-01-30T18:06:02.776Z,99888.89
2018-01-30T18:08:31.363Z,99881.30
2018-01-30T18:10:59.742Z,99866.20
2018-01-30T18:13:28.052Z,99894.63
2018-01-30T18:15:56.374Z,99893.06
2018-01-30T18:18:24.677Z,99897.43
2018-01-30T18:20:52.977Z,99874.97
2018-01-30T18:23:21.283Z,99882.38
2018-01-30T18:25:49.603Z,99890.86
2018-01-30T18:28:17.910Z,99868.81
2018-01-30T18:30:46.212Z,99888.03
2018-01-30T18:33:14.462Z,99892.33
2018-01-30T18:35:42.743Z,99889.55
2018-01-30T18:38:11.031Z,99885.85
2018-01-30T18:40:39.295Z,99887.47
2018-01-30T18:43:07.608Z,99873.05
2018-01-30T18:45:36.176Z,99886.30
2018-01-30T18:48:04.476Z,99874.11
2018-01-30T18:50:32.800Z,99888.02
2018-01-30T18:53:01.090Z,99889.76
2018-01-30T18:55:29.374Z,99884.48
2018-01-30T18:57:57.631Z,99884.07
2018-01-30T19:00:25.910Z,99891.58
2018-01-30T19:02:54.167Z,99885.84
2018-01-30T19:05:22.459Z,99882.64
2018-01-30T19:07:50.724Z,99882.27
2018-01-30T19:10:19.013Z,99874.24
2018-01-30T19:12:47.308Z,99870.98
2018-01-30T19:15:15.572Z,99867.89
2018-01-30T19:17:43.869Z,99865.00
2018-01-30T19:20:12.159Z,99849.60
2018-01-30T19:22:40.530Z,99858.33
2018-01-30T19:25:08.787Z,99857.16
2018-01-30T19:27:37.100Z,99859.11
2018-01-30T19:30:05.382Z,99849.50
2018-01-30T19:32:33.732Z,99853.56
2018-01-30T19:35:01.993Z,99852.28
2018-01-30T19:37:30.296Z,99847.56
2018-01-30T19:39:58.563Z,99840.97
2018-01-30T19:42:26.870Z,99848.11
2018-01-30T19:44:55.166Z,99845.68
2018-01-30T19:47:23.421Z,99849.87
2018-01-30T19:49:52.666Z,99850.92
2018-01-30T19:52:20.936Z,99853.69
2018-01-30T19:54:49.234Z,99842.91
2018-01-30T19:57:17.510Z,99837.52
2018-01-30T19:59:45.868Z,99830.34
2018-01-30T20:02:14.148Z,99834.63
2018-01-30T20:04:42.506Z,99831.92
2018-01-30T20:07:10.851Z,99828.42
2018-01-30T20:09:39.115Z,99821.08
2018-01-30T20:12:07.395Z,99811.48
2018-01-30T20:14:35.709Z,99809.14
2018-01-30T20:17:03.966Z,99800.16
2018-01-30T20:19:32.287Z,99792.69
2018-01-30T20:22:00.606Z,99786.95
2018-01-30T20:24:28.860Z,99780.14
2018-01-30T20:26:57.172Z,99788.78
2018-01-30T20:29:25.545Z,99773.84
2018-01-30T20:31:53.809Z,99773.86
2018-01-30T20:34:22.071Z,99764.77
2018-01-30T20:36:50.366Z,99763.67
2018-01-30T20:39:18.679Z,99762.58
2018-01-30T20:41:46.949Z,99764.20
2018-01-30T20:44:15.195Z,99764.97
2018-01-30T20:46:43.532Z,99760.55
2018-01-30T20:49:11.808Z,99758.09
2018-01-30T20:51:40.092Z,99743.52
2018-01-30T20:54:08.375Z,99735.91
2018-01-30T20:56:36.667Z,99729.55
2018-01-30T20:59:04.954Z,99731.64
2018-01-30T21:01:33.217Z,99716.41
2018-01-30T21:04:01.508Z,99721.23
2018-01-30T21:06:29.777Z,99720.69
2018-01-30T21:08:58.128Z,99727.22
2018-01-30T21:11:26.391Z,99730.27
2018-01-30T21:13:54.657Z,99727.95
2018-01-30T21:16:23.189Z,99731.05
2018-01-30T21:18:51.527Z,99728.14
2018-01-30T21:21:19.788Z,99732.31
2018-01-30T21:23:48.109Z,99733.36
2018-01-30T21:26:16.400Z,99722.29
2018-01-30T21:28:44.705Z,99723.91
2018-01-30T21:31:12.992Z,99723.39
2018-01-30T21:33:41.267Z,99721.38
2018-01-30T21:36:09.567Z,99722.43
2018-01-30T21:38:37.835Z,99721.27
2018-01-30T21:41:06.101Z,99721.98
2018-01-30T21:43:34.417Z,99721.83
2018-01-30T21:46:02.994Z,99724.38
2018-01-30T21:48:31.271Z,99725.28
2018-01-30T21:50:59.579Z,99720.00
2018-01-30T21:53:27.908Z,99725.95
2018-01-30T21:55:56.179Z,99718.30
2018-01-30T21:58:24.496Z,99720.29
2018-01-30T22:00:52.817Z,99722.10
2018-01-30T22:03:21.133Z,99721.45
2018-01-30T22:05:49.416Z,99721.70
2018-01-30T22:08:17.722Z,99716.57
2018-01-30T22:10:47.505Z,99715.60
2018-01-30T22:13:15.887Z,99719.86
2018-01-30T22:15:44.792Z,99715.55
2018-01-30T22:18:13.058Z,99715.49
2018-01-30T22:20:41.324Z,99714.69
2018-01-30T22:23:09.614Z,99702.96
2018-01-30T22:25:37.942Z,99713.88
2018-01-30T22:28:06.213Z,99711.34
2018-01-30T22:30:34.502Z,99706.07
2018-01-30T22:33:02.826Z,99701.77
2018-01-30T22:35:31.189Z,99702.25
2018-01-30T22:37:59.498Z,99688.34
2018-01-30T22:40:27.815Z,99692.80
2018-01-30T22:42:56.116Z,99690.22
2018-01-30T22:45:24.548Z,99687.73
